CARO2: North Fork Red, OK

Data processed at Tue May 21 2019 23:50


All information presented herein is the property of the government of the United States of America and may be revised or deleted at any time without prior notice.
Dissemination of this information without the expressed written consent of the Public Affairs Office, Tulsa District U.S. Army Corps of Engineers is strictly prohibited.
These data are gathered electronically and, as presented, have not undergone any form of quality control. These data are not guaranteed to be valid or correct.
Go to home page.
Go to station list.
Go to home page.

Upstream stations:

Downstream station:
Previous Day
Next Day
Current Day
    
SHEF ID:       CARO2     North Fork Red River near Carter
STATION TYPE:  
Regulating: Stage =    11.00, Flow =     1411

               PRECIP     STAGE  STAGE(2)  RIV-FLOW  BAT-LOAD
                   in        ft        ft       cfs      volt
              Ccp-Rev   Ccp-Rev   Ccp-Rev   Ccp-Rev   Ccp-Rev
(US/Central)
05/21 00:00      0.25      7.52      7.52       267     12.49
05/21 01:00      0.05      7.49      7.50       261     12.49
05/21 02:00      0.16      7.60      7.59       283     12.41
05/21 03:00      0.05      7.69      7.69       301     12.41
05/21 04:00      0.02      7.82      7.82       329     12.41
05/21 05:00      0.18      8.05      8.06       381     12.41
05/21 06:00      0.00      8.34      8.37       453     12.41
05/21 07:00      0.00      8.70      8.72       550     12.41
05/21 08:00      0.00      9.15      9.15       686     12.65
05/21 09:00      0.00      9.64      9.69       852     12.81
05/21 10:00      0.00     10.11     10.21      1029     13.37
05/21 11:00      0.00     10.48     10.58      1180     13.44
05/21 12:00      0.00     10.81     10.87      1324     13.53
05/21 13:00      0.00     10.97     11.10      1397     13.60
05/21 14:00      0.00     11.11     11.21      1462     13.68
05/21 15:00      0.00     11.23     11.34      1519     13.92
05/21 16:00      0.00     11.46     11.48      1632     13.44
05/21 17:00      0.00     11.48     11.64      1642     13.29
05/21 18:00      0.00     11.64     11.77      1724     13.29
05/21 19:00      0.00     11.82     11.95      1818     13.29
05/21 20:00      0.00     11.96     12.08      1892     13.21
05/21 21:00      0.00     12.00     12.23      1914     12.73
05/21 22:00      0.00     12.13     12.31      1985     12.65
05/21 23:00      0.00     12.21     12.43      2032     12.65